| time (UTC) | temp C | wind direction | speed KPH | gust KPH | rain 1hr cm | rain 24hr cm | rain mn cm | humidity % | barometer mb |
| 20260507025606 | 7 | 225 | 0.0 | 3.2 | 0.00 | 0.36 | 0.03 | 99 | 1011.0 |
| 20260507024536 | 7 | 255 | 0.0 | 3.2 | 0.00 | 0.36 | 0.03 | 99 | 1010.9 |
| 20260507023606 | 7 | 0.0 | 3.2 | 0.00 | 0.36 | 0.03 | 99 | 1010.9 | |
| 20260507022536 | 7 | 240 | 1.6 | 3.2 | 0.00 | 0.36 | 0.03 | 99 | 1010.9 |
| 20260507021606 | 7 | 238 | 1.6 | 6.4 | 0.00 | 0.36 | 0.03 | 99 | 1010.9 |
| 20260507020530 | 7 | 259 | 1.6 | 3.2 | 0.00 | 0.36 | 0.03 | 99 | 1010.8 |
| 20260507015602 | 7 | 270 | 0.0 | 3.2 | 0.00 | 0.36 | 0.03 | 99 | 1010.8 |
| 20260507014529 | 7 | 244 | 3.2 | 9.7 | 0.00 | 0.36 | 0.03 | 99 | 1010.7 |
| 20260507013601 | 7 | 270 | 0.0 | 3.2 | 0.00 | 0.36 | 0.03 | 99 | 1010.7 |
| 20260507012528 | 7 | 0.0 | 0.0 | 0.00 | 0.36 | 0.03 | 99 | 1010.5 | |
| 20260507011553 | 7 | 225 | 1.6 | 6.4 | 0.00 | 0.36 | 0.03 | 99 | 1010.5 |
| 20260507010617 | 7 | 248 | 0.0 | 3.2 | 0.00 | 0.36 | 0.03 | 99 | 1010.4 |
| 20260507005546 | 7 | 225 | 0.0 | 3.2 | 0.00 | 0.36 | 0.03 | 99 | 1010.4 |
| 20260507004617 | 7 | 267 | 1.6 | 3.2 | 0.00 | 0.36 | 0.03 | 99 | 1010.3 |
| 20260507003540 | 7 | 248 | 1.6 | 6.4 | 0.00 | 0.38 | 0.03 | 99 | 1010.3 |
| 20260507002603 | 7 | 233 | 1.6 | 3.2 | 0.00 | 0.38 | 0.03 | 99 | 1010.2 |
| 20260507001531 | 7 | 249 | 1.6 | 6.4 | 0.00 | 0.38 | 0.03 | 99 | 1010.1 |
| 20260507000603 | 7 | 248 | 1.6 | 3.2 | 0.03 | 0.38 | 0.03 | 99 | 1010.2 |
| 20260506235529 | 7 | 249 | 1.6 | 6.4 | 0.03 | 0.43 | 0.03 | 99 | 1010.3 |
| 20260506234600 | 7 | 236 | 1.6 | 6.4 | 0.03 | 0.51 | 0.03 | 99 | 1010.1 |
| 20260506233525 | 7 | 225 | 0.0 | 3.2 | 0.03 | 0.51 | 0.03 | 99 | 1010.2 |
| 20260506232557 | 7 | 254 | 0.0 | 3.2 | 0.03 | 0.51 | 0.03 | 99 | 1010.1 |
| 20260506231525 | 7 | 248 | 1.6 | 6.4 | 0.03 | 0.51 | 0.03 | 99 | 1010.1 |
| 20260506230550 | 7 | 254 | 1.6 | 6.4 | 0.00 | 0.48 | 0.00 | 99 | 1010.0 |
| 20260506225613 | 7 | 261 | 3.2 | 6.4 | 0.00 | 0.51 | 0.00 | 99 | 1010.0 |
| 20260506224542 | 7 | 263 | 0.0 | 3.2 | 0.00 | 0.53 | 0.00 | 99 | 1009.9 |
| 20260506223614 | 7 | 248 | 3.2 | 6.4 | 0.00 | 0.53 | 0.00 | 99 | 1009.8 |
| 20260506222542 | 7 | 261 | 1.6 | 6.4 | 0.00 | 0.53 | 0.00 | 99 | 1009.8 |
| 20260506221614 | 7 | 293 | 1.6 | 6.4 | 0.00 | 0.53 | 0.00 | 99 | 1009.7 |
| 20260506220547 | 7 | 270 | 1.6 | 3.2 | 0.00 | 0.56 | 0.00 | 99 | 1009.6 |
| 20260506215614 | 7 | 274 | 1.6 | 3.2 | 0.00 | 0.56 | 0.56 | 99 | 1009.4 |
| 20260506214542 | 7 | 288 | 1.6 | 6.4 | 0.00 | 0.56 | 0.56 | 98 | 1009.4 |
| 20260506213614 | 7 | 293 | 0.0 | 3.2 | 0.00 | 0.61 | 0.56 | 98 | 1009.4 |
| 20260506212542 | 7 | 0.0 | 0.0 | 0.00 | 0.61 | 0.56 | 98 | 1009.3 | |
| 20260506211614 | 7 | 281 | 0.0 | 3.2 | 0.00 | 0.61 | 0.56 | 98 | 1009.3 |
| 20260506210542 | 7 | 283 | 0.0 | 3.2 | 0.00 | 0.64 | 0.56 | 98 | 1009.2 |
| 20260506205613 | 7 | 248 | 0.0 | 6.4 | 0.00 | 0.64 | 0.56 | 98 | 1009.2 |
| 20260506204542 | 7 | 275 | 1.6 | 6.4 | 0.00 | 0.64 | 0.56 | 98 | 1009.1 |
| 20260506203613 | 7 | 261 | 1.6 | 3.2 | 0.00 | 0.66 | 0.56 | 98 | 1009.0 |
| 20260506202542 | 7 | 256 | 1.6 | 3.2 | 0.00 | 0.66 | 0.56 | 98 | 1009.0 |
| 20260506201614 | 7 | 262 | 1.6 | 6.4 | 0.00 | 0.66 | 0.56 | 98 | 1008.9 |
| 20260506200542 | 7 | 277 | 1.6 | 6.4 | 0.00 | 0.71 | 0.56 | 97 | 1008.9 |
| 20260506195613 | 7 | 264 | 1.6 | 6.4 | 0.00 | 0.79 | 0.56 | 97 | 1008.8 |
| 20260506194543 | 8 | 266 | 1.6 | 6.4 | 0.00 | 0.81 | 0.56 | 98 | 1008.7 |
| 20260506193614 | 8 | 248 | 1.6 | 6.4 | 0.00 | 0.81 | 0.56 | 98 | 1008.7 |
| 20260506192542 | 8 | 258 | 1.6 | 3.2 | 0.00 | 0.81 | 0.56 | 98 | 1008.5 |
| 20260506191613 | 8 | 281 | 1.6 | 6.4 | 0.00 | 0.84 | 0.56 | 98 | 1008.5 |
| 20260506190542 | 8 | 255 | 1.6 | 6.4 | 0.00 | 0.89 | 0.56 | 98 | 1008.4 |
| 20260506185614 | 8 | 279 | 1.6 | 6.4 | 0.00 | 0.97 | 0.56 | 98 | 1008.2 |
| 20260506184542 | 8 | 235 | 1.6 | 3.2 | 0.00 | 0.99 | 0.56 | 98 | 1008.1 |
| 20260506183614 | 8 | 262 | 1.6 | 3.2 | 0.00 | 0.99 | 0.56 | 98 | 1008.0 |
| 20260506182542 | 8 | 248 | 0.0 | 6.4 | 0.00 | 0.99 | 0.56 | 98 | 1007.8 |
| 20260506181613 | 8 | 250 | 1.6 | 6.4 | 0.00 | 1.02 | 0.56 | 98 | 1007.7 |
| 20260506180542 | 8 | 281 | 1.6 | 6.4 | 0.00 | 1.02 | 0.56 | 98 | 1007.7 |
| 20260506175614 | 8 | 284 | 1.6 | 3.2 | 0.00 | 1.04 | 0.56 | 99 | 1007.5 |
| 20260506174542 | 8 | 261 | 1.6 | 6.4 | 0.00 | 1.04 | 0.56 | 99 | 1007.5 |
| 20260506173613 | 8 | 315 | 0.0 | 6.4 | 0.00 | 1.09 | 0.56 | 99 | 1007.5 |
| 20260506172542 | 8 | 293 | 0.0 | 3.2 | 0.00 | 1.09 | 0.56 | 99 | 1007.3 |
| 20260506171614 | 8 | 265 | 1.6 | 6.4 | 0.00 | 1.12 | 0.56 | 99 | 1007.3 |
| 20260506170547 | 8 | 252 | 3.2 | 6.4 | 0.00 | 1.14 | 0.56 | 99 | 1007.1 |
| 20260506165614 | 8 | 235 | 1.6 | 6.4 | 0.00 | 1.22 | 0.56 | 99 | 1007.1 |
| 20260506164542 | 9 | 251 | 3.2 | 9.7 | 0.00 | 1.27 | 0.56 | 99 | 1007.2 |
| 20260506163613 | 9 | 237 | 3.2 | 9.7 | 0.00 | 1.32 | 0.56 | 98 | 1007.1 |
| 20260506162542 | 9 | 238 | 1.6 | 6.4 | 0.00 | 1.42 | 0.56 | 99 | 1007.1 |
| 20260506161613 | 9 | 260 | 1.6 | 3.2 | 0.00 | 1.63 | 0.56 | 99 | 1007.1 |
| 20260506160542 | 10 | 273 | 1.6 | 9.7 | 0.00 | 1.68 | 0.56 | 99 | 1007.0 |
| 20260506155614 | 10 | 262 | 1.6 | 6.4 | 0.00 | 1.75 | 0.56 | 99 | 1006.9 |
| 20260506154542 | 10 | 232 | 1.6 | 6.4 | 0.00 | 1.75 | 0.56 | 99 | 1006.8 |
| 20260506153614 | 10 | 270 | 0.0 | 3.2 | 0.00 | 1.75 | 0.56 | 99 | 1006.8 |
| 20260506152542 | 10 | 271 | 3.2 | 6.4 | 0.00 | 1.75 | 0.56 | 99 | 1006.5 |
| 20260506151613 | 10 | 241 | 3.2 | 6.4 | 0.00 | 1.75 | 0.56 | 99 | 1006.5 |
| 20260506150542 | 10 | 271 | 3.2 | 9.7 | 0.00 | 1.75 | 0.56 | 99 | 1006.4 |
| 20260506145618 | 11 | 269 | 4.8 | 12.9 | 0.00 | 1.75 | 0.56 | 99 | 1006.4 |
| 20260506144542 | 11 | 261 | 1.6 | 6.4 | 0.00 | 1.75 | 0.56 | 99 | 1006.3 |
| 20260506143613 | 11 | 268 | 3.2 | 6.4 | 0.00 | 1.75 | 0.56 | 99 | 1006.3 |
| 20260506142542 | 11 | 0.0 | 3.2 | 0.00 | 1.75 | 0.56 | 99 | 1006.3 | |
| 20260506141614 | 11 | 270 | 0.0 | 3.2 | 0.00 | 1.75 | 0.56 | 99 | 1006.3 |
| 20260506140542 | 11 | 263 | 3.2 | 6.4 | 0.00 | 1.75 | 0.56 | 99 | 1006.2 |
| 20260506135619 | 11 | 232 | 1.6 | 6.4 | 0.03 | 1.75 | 0.56 | 99 | 1006.2 |
| 20260506134542 | 11 | 258 | 0.0 | 3.2 | 0.05 | 1.75 | 0.56 | 99 | 1006.0 |
| 20260506133613 | 11 | 270 | 0.0 | 3.2 | 0.13 | 1.75 | 0.56 | 99 | 1006.1 |
| 20260506132542 | 11 | 233 | 0.0 | 3.2 | 0.15 | 1.75 | 0.56 | 99 | 1006.0 |
| 20260506131614 | 11 | 248 | 1.6 | 6.4 | 0.15 | 1.75 | 0.56 | 99 | 1005.8 |
| 20260506130542 | 11 | 240 | 1.6 | 6.4 | 0.15 | 1.75 | 0.56 | 99 | 1005.8 |
| 20260506125614 | 11 | 255 | 1.6 | 6.4 | 0.15 | 1.70 | 0.53 | 99 | 1005.9 |
| 20260506124542 | 11 | 266 | 1.6 | 3.2 | 0.13 | 1.68 | 0.51 | 99 | 1005.7 |
| 20260506123614 | 11 | 293 | 1.6 | 3.2 | 0.10 | 1.63 | 0.46 | 99 | 1005.7 |
| 20260506122542 | 11 | 246 | 1.6 | 6.4 | 0.05 | 1.60 | 0.43 | 99 | 1005.7 |
| 20260506121613 | 11 | 256 | 1.6 | 3.2 | 0.13 | 1.60 | 0.43 | 99 | 1005.7 |
| 20260506120542 | 11 | 263 | 1.6 | 3.2 | 0.13 | 1.60 | 0.43 | 99 | 1005.7 |
| 20260506115613 | 11 | 271 | 1.6 | 3.2 | 0.10 | 1.55 | 0.38 | 99 | 1005.7 |
| 20260506114537 | 12 | 277 | 1.6 | 6.4 | 0.10 | 1.55 | 0.38 | 99 | 1005.6 |
| 20260506113559 | 11 | 248 | 1.6 | 3.2 | 0.10 | 1.52 | 0.36 | 99 | 1005.5 |
| 20260506112528 | 12 | 0.0 | 0.0 | 0.10 | 1.52 | 0.36 | 98 | 1005.6 | |
| 20260506111600 | 12 | 238 | 1.6 | 6.4 | 0.03 | 1.47 | 0.30 | 97 | 1005.4 |
| 20260506110528 | 12 | 248 | 0.0 | 3.2 | 0.03 | 1.47 | 0.30 | 97 | 1005.5 |
| 20260506105600 | 12 | 0.0 | 0.0 | 0.03 | 1.47 | 0.30 | 98 | 1005.5 | |
| 20260506104624 | 11 | 231 | 1.6 | 3.2 | 0.03 | 1.47 | 0.30 | 97 | 1005.6 |
| 20260506103546 | 12 | 0.0 | 0.0 | 0.00 | 1.45 | 0.28 | 97 | 1005.6 | |
| 20260506102617 | 12 | 0.0 | 0.0 | 0.00 | 1.45 | 0.28 | 97 | 1005.6 | |
| 20260506101545 | 12 | 231 | 0.0 | 3.2 | 0.00 | 1.45 | 0.28 | 97 | 1005.4 |
| 20260506100617 | 12 | 0.0 | 0.0 | 0.00 | 1.45 | 0.28 | 98 | 1005.5 | |
| 20260506095539 | 12 | 203 | 1.6 | 6.4 | 0.00 | 1.45 | 0.28 | 98 | 1005.4 |
| 20260506094605 | 12 | 252 | 1.6 | 6.4 | 0.00 | 1.45 | 0.28 | 99 | 1005.5 |
| 20260506093529 | 11 | 248 | 3.2 | 6.4 | 0.00 | 1.45 | 0.28 | 99 | 1005.5 |
| 20260506092552 | 11 | 240 | 3.2 | 6.4 | 0.00 | 1.45 | 0.28 | 99 | 1005.4 |
| 20260506091619 | 11 | 258 | 1.6 | 6.4 | 0.03 | 1.45 | 0.28 | 99 | 1005.4 |
| 20260506090549 | 11 | 243 | 1.6 | 6.4 | 0.03 | 1.45 | 0.28 | 99 | 1005.3 |
| 20260506085619 | 11 | 254 | 0.0 | 3.2 | 0.03 | 1.45 | 0.28 | 99 | 1005.3 |
| 20260506084550 | 11 | 218 | 0.0 | 6.4 | 0.03 | 1.45 | 0.28 | 99 | 1005.3 |
| 20260506083620 | 11 | 246 | 1.6 | 6.4 | 0.03 | 1.45 | 0.28 | 99 | 1005.2 |
| 20260506082550 | 11 | 248 | 0.0 | 3.2 | 0.03 | 1.45 | 0.28 | 99 | 1005.1 |
| 20260506081620 | 10 | 257 | 1.6 | 6.4 | 0.00 | 1.42 | 0.23 | 99 | 1005.1 |
| 20260506080550 | 10 | 193 | 0.0 | 3.2 | 0.00 | 1.42 | 0.23 | 99 | 1005.2 |
| 20260506072550 | 10 | 249 | 1.6 | 3.2 | 0.00 | 1.42 | 0.23 | 99 | 1005.0 |
| 20260506071620 | 10 | 259 | 1.6 | 3.2 | 0.00 | 1.42 | 0.23 | 99 | 1004.9 |
| 20260506070550 | 10 | 276 | 3.2 | 6.4 | 0.00 | 1.42 | 0.23 | 99 | 1004.9 |
| 20260506061620 | 10 | 250 | 1.6 | 6.4 | 0.00 | 1.42 | 0.23 | 99 | 1004.8 |
| 20260506060549 | 10 | 278 | 1.6 | 6.4 | 0.00 | 1.42 | 0.23 | 99 | 1004.7 |
| 20260506050550 | 10 | 0.0 | 0.0 | 0.00 | 1.42 | 0.23 | 99 | 1004.8 | |
| 20260506044550 | 10 | 262 | 0.0 | 3.2 | 0.00 | 1.42 | 0.23 | 99 | 1004.8 |
| 20260506043621 | 10 | 270 | 0.0 | 3.2 | 0.00 | 1.42 | 0.23 | 99 | 1004.9 |
| 20260506041624 | 10 | 252 | 1.6 | 3.2 | 0.00 | 1.42 | 0.23 | 99 | 1004.9 |
| 20260506040544 | 10 | 240 | 1.6 | 3.2 | 0.00 | 1.42 | 0.23 | 99 | 1004.9 |
| 20260506035615 | 10 | 239 | 1.6 | 3.2 | 0.00 | 1.42 | 0.23 | 99 | 1004.9 |
| 20260506034544 | 10 | 255 | 1.6 | 3.2 | 0.00 | 1.42 | 0.23 | 99 | 1005.0 |
| 20260506033615 | 10 | 261 | 3.2 | 6.4 | 0.00 | 1.42 | 0.23 | 99 | 1005.0 |
| 20260506032544 | 10 | 244 | 1.6 | 6.4 | 0.00 | 1.42 | 0.23 | 99 | 1004.8 |
| 20260506031616 | 10 | 245 | 3.2 | 6.4 | 0.00 | 1.42 | 0.23 | 99 | 1004.8 |
| 20260506030544 | 10 | 0.0 | 0.0 | 0.00 | 1.42 | 0.23 | 99 | 1004.9 |